Time;durP1;ratioP1;P1;durP2;ratioP2;P2;SDS_P1;SDS_P2;PMS_P1;PMS_P2;Temp;Humidity;BMP_temperature;BMP_pressure;BME280_temperature;BME280_humidity;BME280_pressure;Samples;Min_cycle;Max_cycle;Signal;HPM_P1;HPM_P2
2021/05/04 00:00:01;;;;;;;3.83;1.87;;;;;;;5.92;60.50;100340.67;1747951;80;21215;-76
2021/05/04 00:02:31;;;;;;;3.90;1.92;;;;;;;5.91;60.75;100339.06;1741800;80;21156;-75
2021/05/04 00:04:59;;;;;;;2.98;1.70;;;;;;;5.88;61.00;100337.67;1747445;80;21255;-74
2021/05/04 00:07:27;;;;;;;4.03;1.70;;;;;;;5.85;61.31;100347.41;1748297;81;21164;-75
2021/05/04 00:09:55;;;;;;;3.12;1.80;;;;;;;5.83;61.27;100337.58;1762750;79;22239;-75
2021/05/04 00:12:23;;;;;;;3.58;2.00;;;;;;;5.79;61.43;100343.86;1744058;80;21185;-75
2021/05/04 00:14:52;;;;;;;3.72;1.92;;;;;;;5.77;61.68;100344.60;1731568;80;21177;-75
2021/05/04 00:17:20;;;;;;;3.33;2.10;;;;;;;5.73;61.81;100343.45;1779379;80;21158;-73
2021/05/04 00:19:50;;;;;;;3.42;2.10;;;;;;;5.70;61.91;100350.53;1743365;80;21237;-76
2021/05/04 00:22:18;;;;;;;4.55;2.20;;;;;;;5.64;62.37;100348.80;1770402;79;22018;-75
2021/05/04 00:24:46;;;;;;;4.08;2.35;;;;;;;5.60;62.48;100350.30;1758242;79;21196;-75
2021/05/04 00:27:14;;;;;;;5.10;2.62;;;;;;;5.58;62.72;100349.71;1758722;81;21181;-76
2021/05/04 00:29:43;;;;;;;3.40;2.10;;;;;;;5.53;62.71;100352.25;1750104;81;21212;-75
2021/05/04 00:32:11;;;;;;;3.65;2.40;;;;;;;5.52;62.78;100351.95;1757200;80;21190;-75
2021/05/04 00:34:41;;;;;;;4.65;2.58;;;;;;;5.50;63.03;100354.03;1754642;79;22502;-76
2021/05/04 00:37:08;;;;;;;3.75;2.33;;;;;;;5.48;63.27;100355.57;1763978;79;21196;-74
2021/05/04 00:39:38;;;;;;;4.70;2.10;;;;;;;5.47;63.46;100361.11;1764360;81;21224;-75
2021/05/04 00:42:06;;;;;;;4.10;2.30;;;;;;;5.44;63.69;100354.42;1739970;80;21687;-74
2021/05/04 00:44:34;;;;;;;4.72;2.50;;;;;;;5.42;63.71;100365.75;1746427;80;21210;-75
2021/05/04 00:47:02;;;;;;;4.05;2.20;;;;;;;5.39;63.72;100358.25;1770218;80;21367;-75
2021/05/04 00:49:32;;;;;;;5.30;2.40;;;;;;;5.40;64.03;100358.56;1758265;81;21639;-74
2021/05/04 00:52:00;;;;;;;3.92;2.55;;;;;;;5.38;64.07;100360.10;1732953;81;21203;-75
2021/05/04 00:54:28;;;;;;;3.72;2.42;;;;;;;5.37;63.99;100360.34;1770503;79;21240;-76
2021/05/04 00:56:56;;;;;;;4.95;2.77;;;;;;;5.36;64.12;100350.27;1752134;81;21683;-75
2021/05/04 00:59:24;;;;;;;6.00;2.20;;;;;;;5.36;64.06;100357.38;1736816;80;21525;-76
2021/05/04 01:01:54;;;;;;;4.58;2.47;;;;;;;5.37;64.05;100355.84;1745869;80;21252;-75
2021/05/04 01:04:22;;;;;;;3.75;2.60;;;;;;;5.37;64.11;100357.17;1760824;81;21182;-75
2021/05/04 01:06:50;;;;;;;4.83;2.87;;;;;;;5.35;64.19;100354.45;1752330;81;21211;-76
2021/05/04 01:09:18;;;;;;;3.85;2.27;;;;;;;5.33;64.03;100356.51;1750901;79;21143;-75
2021/05/04 01:11:47;;;;;;;4.50;2.60;;;;;;;5.32;64.07;100357.03;1750794;81;21202;-75
2021/05/04 01:14:14;;;;;;;4.08;2.35;;;;;;;5.30;64.16;100356.99;1757018;81;21207;-76
2021/05/04 01:16:48;;;;;;;4.33;2.40;;;;;;;5.29;64.21;100354.03;1766726;79;21140;-76
2021/05/04 01:19:14;;;;;;;3.60;2.33;;;;;;;5.27;64.55;100355.59;1762368;80;21191;-76
2021/05/04 01:21:43;;;;;;;4.53;2.60;;;;;;;5.27;64.64;100351.63;1765424;80;21177;-75
2021/05/04 01:24:12;;;;;;;4.75;2.60;;;;;;;5.25;64.79;100353.68;1769942;80;22379;-74
2021/05/04 01:26:43;;;;;;;4.92;2.52;;;;;;;5.25;64.80;100348.38;1751002;81;21172;-75
2021/05/04 01:29:12;;;;;;;3.95;2.20;;;;;;;5.26;64.83;100349.19;1777837;80;21168;-74
2021/05/04 01:31:41;;;;;;;5.22;2.75;;;;;;;5.26;64.92;100353.96;1778693;80;21141;-76
2021/05/04 01:34:11;;;;;;;3.95;2.60;;;;;;;5.24;65.11;100351.27;1745753;81;21137;-75
2021/05/04 01:36:40;;;;;;;5.17;2.90;;;;;;;5.22;65.19;100343.54;1779033;79;22381;-75
2021/05/04 01:39:09;;;;;;;3.33;2.22;;;;;;;5.22;65.21;100359.42;1764585;79;21144;-75
2021/05/04 01:41:38;;;;;;;4.22;2.45;;;;;;;5.22;65.31;100352.00;1727049;81;21192;-75
2021/05/04 01:44:07;;;;;;;4.20;2.55;;;;;;;5.22;65.41;100347.52;1741487;81;21507;-74
2021/05/04 01:46:35;;;;;;;5.97;2.80;;;;;;;5.22;65.52;100359.42;1743629;80;21140;-75
2021/05/04 01:49:06;;;;;;;4.62;2.87;;;;;;;5.20;65.51;100357.54;1749761;81;21663;-76
2021/05/04 01:51:35;;;;;;;4.35;2.65;;;;;;;5.21;65.64;100356.50;1746489;82;21196;-76
2021/05/04 01:54:03;;;;;;;4.15;3.00;;;;;;;5.20;65.74;100361.52;1744513;81;21203;-73
2021/05/04 01:56:31;;;;;;;5.03;2.87;;;;;;;5.17;66.00;100357.47;1763491;79;21160;-74
2021/05/04 01:59:03;;;;;;;4.30;2.70;;;;;;;5.16;66.04;100359.80;1746123;81;21224;-74
2021/05/04 02:01:30;;;;;;;4.58;2.67;;;;;;;5.15;66.16;100358.20;1772243;80;21422;-74
2021/05/04 02:03:58;;;;;;;5.17;2.83;;;;;;;5.14;66.28;100369.03;1743205;80;21675;-74
2021/05/04 02:06:26;;;;;;;6.25;2.80;;;;;;;5.16;66.36;100362.97;1765102;79;21141;-74
2021/05/04 02:08:54;;;;;;;5.25;2.65;;;;;;;5.14;66.48;100364.53;1736219;80;21188;-74
2021/05/04 02:11:23;;;;;;;4.60;2.60;;;;;;;5.15;66.57;100369.31;1768866;80;21187;-75
2021/05/04 02:13:51;;;;;;;4.35;3.22;;;;;;;5.13;66.76;100368.22;1742536;80;21642;-74
2021/05/04 02:16:19;;;;;;;5.15;2.95;;;;;;;5.14;66.70;100371.67;1778968;79;21160;-75
2021/05/04 02:18:47;;;;;;;5.15;2.98;;;;;;;5.15;66.79;100366.14;1751749;80;21186;-74
2021/05/04 02:21:16;;;;;;;4.53;2.62;;;;;;;5.12;66.71;100365.78;1768105;80;21240;-75
2021/05/04 02:23:45;;;;;;;4.22;2.60;;;;;;;5.06;66.59;100377.27;1741397;81;21187;-76
2021/05/04 02:26:15;;;;;;;4.80;2.90;;;;;;;4.97;66.71;100375.97;1747654;82;21646;-76
2021/05/04 02:28:45;;;;;;;4.65;3.12;;;;;;;4.87;66.85;100378.66;1778725;79;21593;-76
2021/05/04 02:31:13;;;;;;;4.87;3.15;;;;;;;4.81;66.99;100371.60;1741265;81;21103;-76
2021/05/04 02:33:43;;;;;;;4.35;3.02;;;;;;;4.77;67.11;100379.70;1748176;80;21304;-75
2021/05/04 02:36:12;;;;;;;5.17;3.00;;;;;;;4.74;67.48;100377.50;1770860;79;21157;-76
2021/05/04 02:38:41;;;;;;;5.35;3.30;;;;;;;4.70;67.72;100384.24;1740012;81;22257;-76
2021/05/04 02:41:09;;;;;;;4.92;3.00;;;;;;;4.68;67.87;100377.06;1741500;81;21212;-76
2021/05/04 02:43:37;;;;;;;4.95;3.10;;;;;;;4.64;67.99;100378.52;1750224;81;21129;-75
2021/05/04 02:46:06;;;;;;;5.47;3.30;;;;;;;4.63;68.10;100383.00;1768685;80;21628;-75
2021/05/04 02:48:39;;;;;;;5.80;3.30;;;;;;;4.61;68.26;100380.31;1752063;81;21160;-76
2021/05/04 02:51:08;;;;;;;6.25;3.08;;;;;;;4.60;68.43;100382.12;1748834;81;22352;-75
2021/05/04 02:53:37;;;;;;;4.95;3.47;;;;;;;4.59;68.54;100387.13;1763356;80;21184;-76
2021/05/04 02:56:06;;;;;;;5.22;3.12;;;;;;;4.60;68.80;100390.58;1752073;80;21203;-75
2021/05/04 02:58:34;;;;;;;4.58;3.00;;;;;;;4.59;68.83;100392.94;1778568;79;21184;-75
2021/05/04 03:01:03;;;;;;;4.90;2.80;;;;;;;4.58;68.98;100390.81;1768459;80;21117;-76
2021/05/04 03:03:34;;;;;;;4.47;2.62;;;;;;;4.57;69.09;100393.66;1747766;80;21235;-75
2021/05/04 03:06:04;;;;;;;4.53;3.33;;;;;;;4.58;69.11;100403.23;1769334;80;21593;-75
2021/05/04 03:08:33;;;;;;;5.22;3.47;;;;;;;4.59;69.16;100403.00;1749686;80;21185;-76
2021/05/04 03:11:01;;;;;;;6.25;3.70;;;;;;;4.62;69.33;100405.72;1748575;80;21187;-75
2021/05/04 03:13:31;;;;;;;5.30;3.70;;;;;;;4.61;69.48;100413.37;1750680;81;21204;-77
2021/05/04 03:16:00;;;;;;;5.50;3.50;;;;;;;4.62;69.49;100402.56;1776609;79;21267;-76
2021/05/04 03:18:28;;;;;;;4.75;3.55;;;;;;;4.65;69.44;100404.77;1776503;79;21200;-76
2021/05/04 03:20:56;;;;;;;5.87;3.90;;;;;;;4.67;69.45;100403.20;1776762;79;21163;-76
2021/05/04 03:23:25;;;;;;;4.87;3.67;;;;;;;4.71;69.40;100409.69;1777785;79;21180;-76
2021/05/04 03:25:54;;;;;;;4.85;3.33;;;;;;;4.73;69.28;100404.16;1775497;79;21157;-76
2021/05/04 03:28:22;;;;;;;5.62;4.08;;;;;;;4.77;69.18;100416.75;1750991;80;21429;-76
2021/05/04 03:30:49;;;;;;;7.17;4.28;;;;;;;4.80;69.14;100424.22;1752869;81;21163;-75
2021/05/04 03:33:17;;;;;;;6.75;4.55;;;;;;;4.83;69.07;100411.86;1741092;81;21248;-76
2021/05/04 03:35:45;;;;;;;5.65;3.80;;;;;;;4.89;69.04;100422.89;1734191;81;21200;-75
2021/05/04 03:38:13;;;;;;;6.12;4.20;;;;;;;4.93;68.76;100422.73;1779931;79;21224;-75
2021/05/04 03:40:41;;;;;;;5.70;3.60;;;;;;;4.99;68.61;100425.53;1779314;79;21454;-75
2021/05/04 03:43:09;;;;;;;7.12;3.92;;;;;;;5.04;68.71;100419.86;1768379;78;21188;-74
2021/05/04 03:45:37;;;;;;;5.17;3.83;;;;;;;5.05;68.59;100414.85;1743647;81;21199;-74
2021/05/04 03:48:06;;;;;;;5.30;3.72;;;;;;;5.13;68.66;100424.31;1718310;81;21183;-74
2021/05/04 03:50:34;;;;;;;5.65;4.00;;;;;;;5.19;68.63;100418.12;1736732;82;21187;-75
2021/05/04 03:53:02;;;;;;;6.03;3.52;;;;;;;5.24;68.54;100418.80;1770756;79;21251;-76
2021/05/04 03:55:30;;;;;;;5.65;3.67;;;;;;;5.30;68.51;100417.38;1744151;81;21209;-76
2021/05/04 03:57:58;;;;;;;7.87;4.50;;;;;;;5.37;68.29;100419.41;1768934;80;21177;-75
2021/05/04 04:00:26;;;;;;;6.30;4.28;;;;;;;5.46;68.26;100405.83;1746529;81;21216;-75
2021/05/04 04:02:54;;;;;;;5.80;4.03;;;;;;;5.55;68.05;100418.53;1744487;82;21141;-75
2021/05/04 04:05:21;;;;;;;5.83;3.83;;;;;;;5.62;67.92;100414.45;1749261;80;21651;-75
2021/05/04 04:07:49;;;;;;;6.05;4.20;;;;;;;5.70;67.56;100414.66;1766235;79;21708;-75
2021/05/04 04:10:18;;;;;;;6.17;4.10;;;;;;;5.76;67.44;100422.50;1752414;81;21131;-76
2021/05/04 04:12:47;;;;;;;5.53;4.00;;;;;;;5.84;67.39;100426.66;1752978;80;21198;-75
2021/05/04 04:15:15;;;;;;;6.22;4.05;;;;;;;5.91;66.96;100431.84;1746919;80;21179;-75
2021/05/04 04:17:44;;;;;;;8.20;4.17;;;;;;;5.94;66.92;100414.99;1758046;80;21376;-75
2021/05/04 04:20:12;;;;;;;5.62;3.50;;;;;;;6.00;66.77;100414.59;1780105;80;21175;-76
2021/05/04 04:22:40;;;;;;;6.28;3.77;;;;;;;6.06;66.50;100413.16;1750317;80;21203;-75
2021/05/04 04:25:10;;;;;;;5.47;4.00;;;;;;;6.15;66.59;100425.53;1734228;80;21232;-74
2021/05/04 04:27:38;;;;;;;6.22;3.72;;;;;;;6.18;66.19;100427.73;1748329;80;21243;-75
2021/05/04 04:30:09;;;;;;;5.62;4.17;;;;;;;6.22;65.90;100414.81;1769374;79;21375;-74
2021/05/04 04:32:37;;;;;;;6.65;3.98;;;;;;;6.25;65.65;100416.52;1782252;80;21219;-75
2021/05/04 04:35:05;;;;;;;5.75;4.10;;;;;;;6.33;65.60;100419.32;1751055;80;21117;-75
2021/05/04 04:37:33;;;;;;;5.62;3.87;;;;;;;6.41;65.64;100424.78;1767530;79;21085;-75
2021/05/04 04:40:01;;;;;;;6.70;4.30;;;;;;;6.51;65.56;100423.14;1775052;80;21639;-75
2021/05/04 04:42:29;;;;;;;5.67;4.20;;;;;;;6.60;65.08;100425.45;1778602;80;21190;-75
2021/05/04 04:44:58;;;;;;;6.83;4.40;;;;;;;6.67;64.96;100424.28;1740391;81;21648;-75
2021/05/04 04:47:26;;;;;;;6.55;3.98;;;;;;;6.75;64.52;100426.58;1741552;80;21459;-74
2021/05/04 04:49:54;;;;;;;6.30;4.00;;;;;;;6.85;64.47;100422.00;1769834;79;21588;-74
2021/05/04 04:52:22;;;;;;;6.75;4.37;;;;;;;6.94;63.78;100419.27;1759316;81;21154;-75
2021/05/04 04:54:50;;;;;;;5.62;4.12;;;;;;;7.03;63.58;100424.98;1743927;81;21367;-75
2021/05/04 04:57:18;;;;;;;6.20;4.40;;;;;;;7.12;63.67;100422.25;1753163;80;21180;-76
2021/05/04 04:59:46;;;;;;;5.65;4.15;;;;;;;7.22;63.47;100426.42;1744632;82;21315;-75
2021/05/04 05:02:14;;;;;;;5.53;4.00;;;;;;;7.33;63.12;100417.30;1735496;80;21679;-76
2021/05/04 05:04:44;;;;;;;8.03;4.67;;;;;;;7.39;62.53;100432.30;1746759;82;21133;-77
2021/05/04 05:07:12;;;;;;;6.20;4.30;;;;;;;7.46;62.54;100420.46;1741765;80;21380;-75
2021/05/04 05:09:41;;;;;;;7.15;4.95;;;;;;;7.55;62.04;100417.42;1770863;80;21199;-75
2021/05/04 05:12:11;;;;;;;6.78;4.42;;;;;;;7.59;61.69;100432.64;1747707;81;21676;-76
2021/05/04 05:14:40;;;;;;;6.08;4.37;;;;;;;7.63;61.21;100417.02;1751385;81;21136;-76
2021/05/04 05:17:10;;;;;;;6.25;4.28;;;;;;;7.66;61.46;100426.64;1748981;81;21207;-75
2021/05/04 05:19:39;;;;;;;6.80;4.37;;;;;;;7.75;61.43;100437.70;1776312;79;21393;-76
2021/05/04 05:22:08;;;;;;;6.78;4.78;;;;;;;7.84;61.53;100438.12;1773588;80;21172;-75
2021/05/04 05:24:37;;;;;;;5.83;4.42;;;;;;;7.95;60.97;100442.53;1774305;80;21148;-75
2021/05/04 05:27:05;;;;;;;7.53;4.92;;;;;;;8.06;60.67;100444.33;1776977;80;21164;-75
2021/05/04 05:29:34;;;;;;;6.42;4.62;;;;;;;8.13;60.51;100445.48;1758913;81;21182;-75
2021/05/04 05:32:04;;;;;;;6.03;4.58;;;;;;;8.20;60.28;100442.93;1762596;81;21206;-74
2021/05/04 05:34:32;;;;;;;5.47;3.87;;;;;;;8.25;60.04;100448.84;1746914;81;21136;-74
2021/05/04 05:37:01;;;;;;;6.55;4.62;;;;;;;8.31;60.13;100443.08;1752578;79;21810;-74
2021/05/04 05:39:28;;;;;;;6.08;4.50;;;;;;;8.34;60.10;100442.59;1760546;81;21183;-74
2021/05/04 05:41:57;;;;;;;6.42;4.58;;;;;;;8.36;59.63;100444.49;1761635;81;21223;-74
2021/05/04 05:44:25;;;;;;;6.45;4.05;;;;;;;8.33;59.38;100435.13;1767758;79;21734;-75
2021/05/04 05:46:53;;;;;;;6.75;4.90;;;;;;;8.36;59.60;100433.84;1777347;79;21255;-75
2021/05/04 05:49:22;;;;;;;7.50;4.60;;;;;;;8.39;59.40;100440.02;1776231;79;21155;-75
2021/05/04 05:51:50;;;;;;;6.60;4.50;;;;;;;8.37;58.92;100440.77;1740315;80;21200;-76
2021/05/04 05:54:18;;;;;;;7.60;5.05;;;;;;;8.36;59.20;100441.30;1752049;81;21114;-75
2021/05/04 05:56:46;;;;;;;6.75;4.62;;;;;;;8.42;59.62;100447.51;1760536;80;21368;-75
2021/05/04 05:59:14;;;;;;;6.25;4.70;;;;;;;8.54;59.16;100446.09;1754782;80;21199;-74
2021/05/04 06:01:41;;;;;;;5.55;4.22;;;;;;;8.59;58.56;100444.84;1754334;80;21167;-75
2021/05/04 06:04:09;;;;;;;6.17;4.85;;;;;;;8.60;58.43;100450.43;1762206;81;21679;-76
2021/05/04 06:06:37;;;;;;;6.97;4.70;;;;;;;8.67;59.15;100445.20;1756160;81;21139;-76
2021/05/04 06:09:05;;;;;;;6.85;4.42;;;;;;;8.76;58.37;100439.45;1758039;80;21573;-76
2021/05/04 06:11:33;;;;;;;6.40;4.42;;;;;;;8.82;58.44;100439.80;1757073;80;21181;-76
2021/05/04 06:14:00;;;;;;;5.20;4.20;;;;;;;8.92;57.76;100451.91;1757505;80;21203;-74
2021/05/04 06:16:28;;;;;;;7.65;4.25;;;;;;;8.98;57.24;100440.77;1752030;81;21167;-75
2021/05/04 06:18:56;;;;;;;5.37;3.85;;;;;;;9.05;56.97;100438.70;1755118;80;22261;-75
2021/05/04 06:21:25;;;;;;;5.75;4.45;;;;;;;9.18;56.81;100443.68;1744897;80;22133;-74
2021/05/04 06:23:54;;;;;;;6.92;4.53;;;;;;;9.31;56.25;100439.28;1744425;81;21076;-74
2021/05/04 06:26:22;;;;;;;5.53;3.90;;;;;;;9.47;55.49;100437.55;1751029;81;21207;-75
2021/05/04 06:28:52;;;;;;;6.97;4.62;;;;;;;9.56;55.05;100437.37;1754651;80;21181;-74
2021/05/04 06:31:20;;;;;;;6.35;3.98;;;;;;;9.62;55.00;100446.23;1754369;80;21255;-77
2021/05/04 06:33:48;;;;;;;6.22;4.00;;;;;;;9.71;54.67;100430.59;1739553;81;22231;-75
2021/05/04 06:36:17;;;;;;;6.22;4.00;;;;;;;9.76;54.38;100443.95;1770771;80;21644;-75
2021/05/04 06:38:44;;;;;;;5.92;3.90;;;;;;;9.73;54.70;100439.12;1743643;80;21144;-75
2021/05/04 06:41:12;;;;;;;5.60;3.60;;;;;;;9.76;54.46;100431.94;1745420;82;21154;-75
2021/05/04 06:43:40;;;;;;;8.13;4.20;;;;;;;9.75;54.30;100429.81;1726776;82;21644;-74
2021/05/04 06:46:08;;;;;;;5.42;3.50;;;;;;;9.76;54.33;100434.08;1734148;82;22109;-76
2021/05/04 06:48:37;;;;;;;6.20;3.52;;;;;;;9.84;53.61;100438.16;1774550;80;21640;-76
2021/05/04 06:51:05;;;;;;;4.87;3.65;;;;;;;9.82;52.24;100438.94;1745694;80;21176;-75
2021/05/04 06:53:34;;;;;;;6.17;3.80;;;;;;;9.83;52.57;100443.20;1750249;80;21204;-76
2021/05/04 06:56:01;;;;;;;5.92;3.58;;;;;;;9.90;52.54;100452.33;1745035;81;21144;-76
2021/05/04 06:58:30;;;;;;;5.12;3.67;;;;;;;9.93;52.24;100445.14;1741356;80;21356;-75
2021/05/04 07:00:57;;;;;;;4.97;3.40;;;;;;;9.93;52.66;100444.61;1749899;79;21181;-76
2021/05/04 07:03:26;;;;;;;5.30;3.30;;;;;;;10.00;52.34;100428.39;1745407;79;21405;-76
2021/05/04 07:05:54;;;;;;;5.05;3.30;;;;;;;10.05;52.03;100436.44;1759704;81;21195;-74
2021/05/04 07:08:22;;;;;;;4.95;3.60;;;;;;;10.17;51.94;100446.91;1752899;81;21192;-74
2021/05/04 07:10:50;;;;;;;5.35;3.20;;;;;;;10.28;51.54;100439.30;1756487;80;21238;-74
2021/05/04 07:13:18;;;;;;;3.87;2.80;;;;;;;10.35;50.91;100445.20;1752356;80;21220;-75
2021/05/04 07:15:47;;;;;;;5.05;3.37;;;;;;;10.36;50.87;100457.48;1756654;81;21205;-76
2021/05/04 07:18:16;;;;;;;6.37;3.12;;;;;;;10.32;51.47;100455.06;1758051;80;21192;-74
2021/05/04 07:20:44;;;;;;;5.20;3.20;;;;;;;10.31;51.33;100452.93;1752903;79;21210;-76
2021/05/04 07:23:13;;;;;;;4.70;3.25;;;;;;;10.30;51.18;100458.54;1760463;80;22186;-77
2021/05/04 07:25:41;;;;;;;6.20;3.37;;;;;;;10.30;50.89;100429.97;1749874;81;21298;-75
2021/05/04 07:28:09;;;;;;;6.00;3.40;;;;;;;10.36;50.97;100459.35;1759953;81;21136;-75
2021/05/04 07:30:42;;;;;;;5.85;3.47;;;;;;;10.41;51.68;100460.20;1758064;80;21144;-76
2021/05/04 07:33:11;;;;;;;4.92;3.30;;;;;;;10.52;51.64;100464.52;1748615;81;21175;-75
2021/05/04 07:35:39;;;;;;;6.65;3.12;;;;;;;10.60;51.35;100469.93;1757710;80;22313;-76
2021/05/04 07:38:09;;;;;;;4.78;3.42;;;;;;;10.66;51.43;100467.56;1760729;81;21167;-75
2021/05/04 07:40:39;;;;;;;4.83;3.70;;;;;;;10.70;50.54;100469.18;1749220;80;21183;-74
2021/05/04 07:43:07;;;;;;;6.95;4.65;;;;;;;10.63;50.82;100467.25;1751921;81;21159;-75
2021/05/04 07:45:35;;;;;;;4.87;3.50;;;;;;;10.67;50.70;100480.38;1761753;80;21147;-74
2021/05/04 07:48:07;;;;;;;5.58;3.33;;;;;;;10.61;50.01;100485.42;1752944;81;21383;-74
2021/05/04 07:50:35;;;;;;;4.67;3.20;;;;;;;10.52;50.17;100477.87;1770584;80;21683;-75
2021/05/04 07:53:02;;;;;;;5.83;3.12;;;;;;;10.44;50.62;100476.24;1764824;80;21148;-75
2021/05/04 07:55:32;;;;;;;4.55;3.35;;;;;;;10.40;51.18;100477.29;1744987;80;21762;-74
2021/05/04 07:58:02;;;;;;;5.03;3.40;;;;;;;10.34;51.23;100479.65;1741918;80;21191;-78
2021/05/04 08:00:29;;;;;;;4.55;2.98;;;;;;;10.27;52.01;100506.56;1774105;79;21208;-75
2021/05/04 08:02:59;;;;;;;4.08;2.60;;;;;;;10.29;51.04;100499.09;1772292;79;21192;-75
2021/05/04 08:05:28;;;;;;;4.62;2.95;;;;;;;10.39;49.81;100486.88;1762184;80;21183;-76
2021/05/04 08:07:56;;;;;;;3.80;2.42;;;;;;;10.46;49.79;100470.92;1778290;79;21242;-75
2021/05/04 08:10:24;;;;;;;6.03;3.20;;;;;;;10.52;49.99;100489.89;1769366;79;21820;-76
2021/05/04 08:12:53;;;;;;;5.08;2.87;;;;;;;10.52;49.56;100471.20;1744882;80;21207;-74
2021/05/04 08:15:22;;;;;;;4.60;2.83;;;;;;;10.47;50.84;100489.08;1748352;80;21243;-74
2021/05/04 08:17:59;;;;;;;4.22;2.90;;;;;;;10.31;49.70;100488.97;1773858;80;21224;-75
2021/05/04 08:20:32;;;;;;;4.95;3.52;;;;;;;10.14;50.24;100486.16;1737854;81;21667;-75
2021/05/04 08:23:02;;;;;;;4.97;3.45;;;;;;;10.16;51.31;100490.69;1745316;81;21981;-75
2021/05/04 08:25:30;;;;;;;4.47;2.65;;;;;;;10.31;50.73;100488.97;1777226;80;21422;-76
2021/05/04 08:27:58;;;;;;;4.90;3.12;;;;;;;10.48;49.38;100514.18;1764394;80;21225;-75
2021/05/04 08:30:26;;;;;;;5.70;3.42;;;;;;;10.55;49.15;100500.60;1771035;80;21167;-75
2021/05/04 08:32:56;;;;;;;4.72;3.17;;;;;;;10.52;49.24;100495.23;1779602;79;21710;-75
2021/05/04 08:35:26;;;;;;;5.22;3.25;;;;;;;10.48;48.87;100494.69;1767089;80;21231;-74
2021/05/04 08:37:54;;;;;;;4.70;3.33;;;;;;;10.41;49.54;100495.45;1759409;80;22159;-75
2021/05/04 08:40:23;;;;;;;4.67;3.40;;;;;;;10.43;49.05;100508.82;1760626;80;21183;-75
2021/05/04 08:42:51;;;;;;;4.55;2.60;;;;;;;10.42;48.61;100493.04;1750913;80;21191;-74
2021/05/04 08:45:19;;;;;;;6.83;3.27;;;;;;;10.37;48.68;100499.70;1757674;80;21289;-75
2021/05/04 08:47:50;;;;;;;5.17;3.08;;;;;;;10.25;48.50;100491.30;1744976;80;21219;-75
2021/05/04 08:50:20;;;;;;;4.25;3.20;;;;;;;10.22;49.07;100495.80;1761217;80;21956;-74
2021/05/04 08:52:49;;;;;;;5.03;3.20;;;;;;;10.22;48.74;100505.69;1742026;81;21597;-76
2021/05/04 08:55:19;;;;;;;5.33;3.02;;;;;;;10.22;49.25;100507.02;1778115;79;22237;-76
2021/05/04 08:57:46;;;;;;;7.58;3.27;;;;;;;10.21;49.73;100503.55;1759004;80;21141;-76
2021/05/04 09:00:15;;;;;;;6.08;3.62;;;;;;;10.21;49.66;100512.09;1769697;79;21198;-75
2021/05/04 09:03:10;;;;;;;4.92;3.10;;;;;;;10.17;49.77;100534.48;1742122;81;21231;-75
2021/05/04 09:06:02;;;;;;;4.80;3.20;;;;;;;10.05;49.94;100520.50;1738890;80;21243;-75
2021/05/04 09:14:21;;;;;;;5.60;3.65;;;;;;;9.54;51.55;100550.66;1779227;79;21146;-75
2021/05/04 09:19:44;;;;;;;3.75;2.70;;;;;;;9.48;53.09;100515.16;1802715;79;21137;-75
2021/05/04 09:22:10;;;;;;;4.97;2.80;;;;;;;9.54;51.42;100522.16;1796403;79;21169;-75
2021/05/04 09:24:41;;;;;;;4.40;3.20;;;;;;;9.62;51.25;100522.23;1801343;79;21183;-75
2021/05/04 09:27:16;;;;;;;4.15;2.70;;;;;;;9.74;50.94;100525.56;1776017;79;21164;-76
2021/05/04 09:29:53;;;;;;;4.40;2.77;;;;;;;9.89;49.29;100528.89;1776361;80;21625;-74
2021/05/04 09:32:25;;;;;;;5.30;2.92;;;;;;;9.95;49.12;100525.22;1806644;78;21193;-75
2021/05/04 09:35:06;;;;;;;5.35;3.20;;;;;;;10.04;49.49;100522.37;1782001;79;21113;-75
2021/05/04 09:37:43;;;;;;;4.53;3.00;;;;;;;10.14;49.40;100521.65;1740327;81;21137;-74
2021/05/04 09:40:29;;;;;;;4.10;2.60;;;;;;;10.21;49.33;100508.89;1771485;80;21706;-75
2021/05/04 09:43:20;;;;;;;4.25;2.92;;;;;;;10.24;49.00;100508.38;1767071;79;21196;-74
2021/05/04 09:45:56;;;;;;;6.00;3.17;;;;;;;10.32;49.22;100494.58;1765826;80;21171;-74
2021/05/04 09:48:31;;;;;;;5.58;2.87;;;;;;;10.56;49.37;100508.37;1766599;80;21118;-75
2021/05/04 09:51:05;;;;;;;4.47;2.90;;;;;;;10.85;48.42;100511.98;1767661;80;21207;-74
2021/05/04 09:53:57;;;;;;;6.30;3.60;;;;;;;11.02;47.24;100500.59;1790316;79;22165;-75
2021/05/04 09:56:36;;;;;;;4.17;2.97;;;;;;;11.14;47.36;100509.71;1760918;80;21227;-75
2021/05/04 09:59:04;;;;;;;4.30;2.97;;;;;;;11.32;46.60;100489.73;1767340;80;21361;-75
2021/05/04 10:01:32;;;;;;;4.43;2.47;;;;;;;11.54;47.35;100494.85;1813801;79;21183;-75
2021/05/04 10:04:02;;;;;;;4.17;2.60;;;;;;;11.83;47.51;100472.41;1777469;79;22117;-75
2021/05/04 10:06:30;;;;;;;6.33;2.63;;;;;;;12.22;46.13;100477.26;1746796;80;21419;-75
2021/05/04 10:08:58;;;;;;;4.00;2.30;;;;;;;12.38;43.82;100477.50;1760771;80;21426;-74
2021/05/04 10:11:26;;;;;;;3.93;2.60;;;;;;;12.30;43.87;100478.58;1811812;79;21922;-74
2021/05/04 10:13:56;;;;;;;3.80;2.30;;;;;;;12.19;44.34;100478.59;1804875;79;21373;-75
2021/05/04 10:16:31;;;;;;;3.97;2.50;;;;;;;12.07;44.12;100492.78;1794511;79;21310;-75
2021/05/04 10:19:02;;;;;;;4.10;2.43;;;;;;;11.84;43.43;100479.39;1770090;80;21350;-75
2021/05/04 10:21:31;;;;;;;3.27;2.27;;;;;;;11.58;44.53;100484.42;1777582;79;21440;-70
2021/05/04 10:23:59;;;;;;;4.07;2.47;;;;;;;11.53;44.69;100480.42;1763114;80;21437;-69
2021/05/04 10:26:29;;;;;;;3.90;2.20;;;;;;;11.53;44.71;100471.86;1782935;79;21319;-70
2021/05/04 10:29:01;;;;;;;4.20;2.37;;;;;;;11.54;44.78;100460.08;1766354;80;21836;-69
2021/05/04 10:31:43;;;;;;;3.53;2.33;;;;;;;11.53;45.49;100489.23;1786519;79;21675;-74
2021/05/04 10:34:29;;;;;;;3.63;2.20;;;;;;;11.46;44.65;100494.84;1768952;80;21729;-74
2021/05/04 10:37:03;;;;;;;3.87;2.37;;;;;;;11.38;45.00;100467.80;1794759;79;21373;-74
2021/05/04 10:39:46;;;;;;;3.53;2.03;;;;;;;11.30;44.93;100454.97;1762844;80;21892;-74
2021/05/04 10:42:33;;;;;;;3.77;2.03;;;;;;;11.23;44.96;100493.98;1778328;80;21455;-75
2021/05/04 10:45:08;;;;;;;3.10;2.03;;;;;;;11.21;45.55;100480.86;1771957;80;21404;-74
2021/05/04 10:47:44;;;;;;;3.60;2.07;;;;;;;11.32;45.64;100483.05;1769322;80;21486;-74
2021/05/04 10:50:23;;;;;;;3.50;1.90;;;;;;;11.46;45.29;100490.03;1772569;79;21880;-73
2021/05/04 10:53:00;;;;;;;3.93;2.00;;;;;;;11.60;45.53;100488.45;1735317;80;21404;-74
2021/05/04 10:55:57;;;;;;;2.90;1.80;;;;;;;11.75;43.58;100474.30;1777386;79;21743;-75
2021/05/04 10:58:26;;;;;;;3.23;1.83;;;;;;;11.75;43.67;100466.27;1778185;79;21438;-73
2021/05/04 11:00:58;;;;;;;2.83;1.83;;;;;;;11.75;44.38;100463.59;1773080;79;21429;-74
2021/05/04 11:03:35;;;;;;;3.10;1.90;;;;;;;11.77;43.50;100468.13;1759973;80;28759;-75
2021/05/04 11:06:29;;;;;;;2.57;1.53;;;;;;;11.86;43.17;100464.42;1793954;78;21200;-75
2021/05/04 11:09:08;;;;;;;3.23;1.73;;;;;;;11.90;42.75;100456.92;1767094;79;21912;-75
2021/05/04 11:11:41;;;;;;;2.90;1.70;;;;;;;11.99;42.40;100470.58;1797259;79;21423;-68
2021/05/04 11:14:22;;;;;;;3.37;1.90;;;;;;;12.01;42.21;100453.73;1776327;79;22032;-67
2021/05/04 11:17:02;;;;;;;3.10;2.00;;;;;;;11.89;42.34;100466.03;1781755;79;21418;-69
2021/05/04 11:19:36;;;;;;;3.10;1.50;;;;;;;11.84;42.13;100463.34;1770187;80;21421;-68
2021/05/04 11:22:10;;;;;;;2.53;1.57;;;;;;;11.89;42.33;100456.66;1779460;79;21420;-73
2021/05/04 11:24:48;;;;;;;3.10;1.37;;;;;;;12.12;41.64;100458.53;1768180;79;21421;-75
2021/05/04 11:27:25;;;;;;;2.33;1.40;;;;;;;12.24;41.28;100451.02;1792200;79;21679;-74
2021/05/04 11:29:57;;;;;;;3.40;1.63;;;;;;;12.31;41.08;100447.52;1780027;79;21436;-71
2021/05/04 11:32:40;;;;;;;3.67;2.08;;;;;;;12.32;41.34;100441.63;1780168;79;21408;-72
2021/05/04 11:35:09;;;;;;;3.80;1.47;;;;;;;12.25;41.15;100452.62;1768454;79;21623;-71
2021/05/04 11:37:46;;;;;;;2.63;1.40;;;;;;;12.15;42.19;100469.50;1767090;79;21980;-70
2021/05/04 11:40:24;;;;;;;2.90;1.70;;;;;;;12.16;42.16;100455.57;1763412;80;22718;-68
2021/05/04 11:42:57;;;;;;;2.53;1.57;;;;;;;12.16;42.44;100452.89;1778501;79;21851;-72
2021/05/04 11:45:34;;;;;;;3.20;1.50;;;;;;;12.18;42.26;100448.09;1770727;80;21489;-71
2021/05/04 11:48:07;;;;;;;2.43;1.40;;;;;;;12.32;41.51;100450.46;1781628;79;21437;-69
2021/05/04 11:50:39;;;;;;;2.57;1.50;;;;;;;12.53;41.30;100449.07;1779902;79;21454;-73